< Typhoon 199706 1997 Season Typhoon 199708 >
Typhoon 199707 (OPAL)
General InformationTrack Information on Google MapsDetailed Wind InformationList of All Images || NewsDisaster Info.ResourceGoogle EarthGE AnimationAtom FeedGeoJSON
Detalied Best Track (Time Zone = UTC)
Year Month Day Hour Lat. Long. Pressure (hPa) Wind (kt) Class Image Chart
1997 6 14 12 14.0 133.7 1008 0 2 Image Chart
1997 6 14 18 14.3 133.6 1008 0 2 Image Chart
1997 6 15 00 14.6 133.5 1006 0 2 Image Chart
1997 6 15 06 14.8 133.3 1004 0 2 Image Chart
1997 6 15 12 14.9 133.1 1002 0 2 Image Chart
1997 6 15 18 15.0 132.9 1000 0 2 Image Chart
1997 6 16 00 15.1 132.8 996 35 3 Image Chart
1997 6 16 06 15.3 132.6 990 45 3 Image Chart
1997 6 16 12 15.6 132.4 985 50 4 Image Chart
1997 6 16 18 15.9 132.3 980 55 4 Image Chart
1997 6 17 00 16.4 132.4 975 60 4 Image Chart
1997 6 17 06 17.3 132.6 970 65 5 Image Chart
1997 6 17 12 18.4 132.9 965 70 5 Image Chart
1997 6 17 18 19.6 133.2 965 70 5 Image Chart
1997 6 18 00 20.7 133.6 960 75 5 Image Chart
1997 6 18 06 22.3 133.7 960 75 5 Image Chart
1997 6 18 12 23.9 133.8 960 75 5 Image Chart
1997 6 18 15 24.8 133.7 960 75 5 Image Chart
1997 6 18 18 25.6 133.7 960 75 5 Image Chart
1997 6 18 21 26.5 133.6 960 75 5 Image Chart
1997 6 19 00 27.5 133.5 965 70 5 Image Chart
1997 6 19 03 28.1 133.5 965 70 5 Image Chart
1997 6 19 06 28.9 133.6 965 70 5 Image Chart
1997 6 19 09 29.7 133.8 965 70 5 Image Chart
1997 6 19 12 30.4 134.2 965 70 5 Image Chart
1997 6 19 15 31.3 134.6 970 65 5 Image Chart
1997 6 19 18 32.2 135.0 970 65 5 Image Chart
1997 6 19 21 32.9 135.6 975 60 4 Image Chart
1997 6 20 00 33.9 136.4 975 60 4 Image Chart
1997 6 20 01 34.3 136.7 975 60 4 Image Chart
1997 6 20 02 34.6 137.0 980 55 4 Image Chart
1997 6 20 03 35.0 137.4 980 55 4 Image Chart
1997 6 20 06 36.1 138.8 985 50 4 Image Chart
1997 6 20 09 37.2 140.0 985 50 4 Image Chart
1997 6 20 12 38.5 141.2 990 45 3 Image Chart
1997 6 20 15 39.5 142.4 990 45 3 Image Chart
1997 6 20 18 40.0 143.4 990 45 3 Image Chart
1997 6 20 21 40.5 144.8 990 45 3 Image Chart
1997 6 21 00 41.0 146.4 990 0 6 Image Chart
1997 6 21 06 41.8 150.4 990 0 6 Image Chart
1997 6 21 12 42.0 152.2 990 0 6 Image Chart
1997 6 21 18 42.1 155.0 990 0 6 Image Chart
1997 6 22 00 43.2 159.1 996 0 6 Image Chart
1997 6 22 06 44.6 162.6 996 0 6 Image Chart
Japan Meteorological Agency Best Track Data | Correction Date : 1998-01-19
< Typhoon 199706 1997 Season Typhoon 199708 >

Help